sensor_id;sensor_type;location;lat;lon;timestamp;P1;durP1;ratioP1;P2;durP2;ratioP2
4521;SDS011;2273;48.464;11.926;2022-10-16T00:01:55;3.20;;;2.77;;
4521;SDS011;2273;48.464;11.926;2022-10-16T00:04:20;6.10;;;3.27;;
4521;SDS011;2273;48.464;11.926;2022-10-16T00:06:46;5.10;;;3.50;;
4521;SDS011;2273;48.464;11.926;2022-10-16T00:09:11;5.73;;;3.40;;
4521;SDS011;2273;48.464;11.926;2022-10-16T00:11:37;5.90;;;3.63;;
4521;SDS011;2273;48.464;11.926;2022-10-16T00:14:04;7.23;;;4.00;;
4521;SDS011;2273;48.464;11.926;2022-10-16T00:16:33;9.13;;;3.43;;
4521;SDS011;2273;48.464;11.926;2022-10-16T00:18:59;6.30;;;3.87;;
4521;SDS011;2273;48.464;11.926;2022-10-16T00:21:26;8.23;;;3.70;;
4521;SDS011;2273;48.464;11.926;2022-10-16T00:23:56;7.47;;;3.90;;
4521;SDS011;2273;48.464;11.926;2022-10-16T00:26:26;6.30;;;4.10;;
4521;SDS011;2273;48.464;11.926;2022-10-16T00:28:53;5.87;;;4.27;;
4521;SDS011;2273;48.464;11.926;2022-10-16T00:31:19;12.33;;;4.57;;
4521;SDS011;2273;48.464;11.926;2022-10-16T00:33:46;7.80;;;4.70;;
4521;SDS011;2273;48.464;11.926;2022-10-16T00:36:12;5.80;;;4.47;;
4521;SDS011;2273;48.464;11.926;2022-10-16T00:38:39;9.40;;;4.23;;
4521;SDS011;2273;48.464;11.926;2022-10-16T00:41:06;6.87;;;4.73;;
4521;SDS011;2273;48.464;11.926;2022-10-16T00:43:45;5.10;;;4.17;;
4521;SDS011;2273;48.464;11.926;2022-10-16T00:49:05;5.47;;;4.27;;
4521;SDS011;2273;48.464;11.926;2022-10-16T00:51:42;4.60;;;3.70;;
4521;SDS011;2273;48.464;11.926;2022-10-16T00:54:26;6.63;;;4.30;;
4521;SDS011;2273;48.464;11.926;2022-10-16T00:56:53;4.80;;;3.57;;
4521;SDS011;2273;48.464;11.926;2022-10-16T00:59:24;5.90;;;4.00;;
4521;SDS011;2273;48.464;11.926;2022-10-16T01:01:52;5.97;;;3.70;;
4521;SDS011;2273;48.464;11.926;2022-10-16T01:04:19;4.23;;;3.77;;
4521;SDS011;2273;48.464;11.926;2022-10-16T01:06:55;4.50;;;3.37;;
4521;SDS011;2273;48.464;11.926;2022-10-16T01:09:37;4.37;;;3.53;;
4521;SDS011;2273;48.464;11.926;2022-10-16T01:13:15;4.70;;;3.40;;
4521;SDS011;2273;48.464;11.926;2022-10-16T01:18:00;8.53;;;3.53;;
4521;SDS011;2273;48.464;11.926;2022-10-16T01:20:47;6.60;;;3.67;;
4521;SDS011;2273;48.464;11.926;2022-10-16T01:28:39;8.10;;;3.70;;
4521;SDS011;2273;48.464;11.926;2022-10-16T01:31:10;7.63;;;3.07;;
4521;SDS011;2273;48.464;11.926;2022-10-16T01:33:41;4.13;;;3.57;;
4521;SDS011;2273;48.464;11.926;2022-10-16T01:36:10;5.67;;;4.20;;
4521;SDS011;2273;48.464;11.926;2022-10-16T01:38:39;7.93;;;3.70;;
4521;SDS011;2273;48.464;11.926;2022-10-16T01:41:09;3.80;;;3.30;;
4521;SDS011;2273;48.464;11.926;2022-10-16T01:43:43;4.30;;;3.43;;
4521;SDS011;2273;48.464;11.926;2022-10-16T01:46:11;6.10;;;3.50;;
4521;SDS011;2273;48.464;11.926;2022-10-16T01:48:38;6.13;;;3.30;;
4521;SDS011;2273;48.464;11.926;2022-10-16T01:51:06;5.33;;;3.70;;
4521;SDS011;2273;48.464;11.926;2022-10-16T01:53:33;4.40;;;3.50;;
4521;SDS011;2273;48.464;11.926;2022-10-16T01:55:59;4.47;;;3.40;;
4521;SDS011;2273;48.464;11.926;2022-10-16T01:58:25;6.00;;;3.17;;
4521;SDS011;2273;48.464;11.926;2022-10-16T02:00:52;6.03;;;2.93;;
4521;SDS011;2273;48.464;11.926;2022-10-16T02:03:22;4.50;;;2.70;;
4521;SDS011;2273;48.464;11.926;2022-10-16T02:05:54;5.07;;;3.33;;
4521;SDS011;2273;48.464;11.926;2022-10-16T02:08:21;6.97;;;3.30;;
4521;SDS011;2273;48.464;11.926;2022-10-16T02:10:48;4.50;;;3.20;;
4521;SDS011;2273;48.464;11.926;2022-10-16T02:13:16;4.80;;;3.17;;
4521;SDS011;2273;48.464;11.926;2022-10-16T02:15:47;7.30;;;3.30;;
4521;SDS011;2273;48.464;11.926;2022-10-16T02:18:12;5.03;;;3.03;;
4521;SDS011;2273;48.464;11.926;2022-10-16T02:20:52;5.37;;;3.10;;
4521;SDS011;2273;48.464;11.926;2022-10-16T02:23:29;4.90;;;3.63;;
4521;SDS011;2273;48.464;11.926;2022-10-16T02:26:02;4.00;;;3.40;;
4521;SDS011;2273;48.464;11.926;2022-10-16T02:28:31;5.33;;;3.60;;
4521;SDS011;2273;48.464;11.926;2022-10-16T02:31:03;7.63;;;3.23;;
4521;SDS011;2273;48.464;11.926;2022-10-16T02:33:30;4.33;;;3.30;;
4521;SDS011;2273;48.464;11.926;2022-10-16T02:35:57;4.40;;;3.43;;
4521;SDS011;2273;48.464;11.926;2022-10-16T02:38:22;7.40;;;3.53;;
4521;SDS011;2273;48.464;11.926;2022-10-16T02:40:49;4.07;;;3.53;;
4521;SDS011;2273;48.464;11.926;2022-10-16T02:43:14;4.90;;;3.77;;
4521;SDS011;2273;48.464;11.926;2022-10-16T02:45:40;10.33;;;2.93;;
4521;SDS011;2273;48.464;11.926;2022-10-16T02:48:06;7.53;;;3.60;;
4521;SDS011;2273;48.464;11.926;2022-10-16T02:50:31;6.27;;;3.87;;
4521;SDS011;2273;48.464;11.926;2022-10-16T02:52:56;4.63;;;3.70;;
4521;SDS011;2273;48.464;11.926;2022-10-16T02:55:22;8.23;;;4.03;;
4521;SDS011;2273;48.464;11.926;2022-10-16T02:57:47;4.10;;;3.60;;
4521;SDS011;2273;48.464;11.926;2022-10-16T03:00:14;3.40;;;3.10;;
4521;SDS011;2273;48.464;11.926;2022-10-16T03:02:40;6.03;;;3.40;;
4521;SDS011;2273;48.464;11.926;2022-10-16T03:05:06;6.17;;;3.80;;
4521;SDS011;2273;48.464;11.926;2022-10-16T03:07:32;4.33;;;3.50;;
4521;SDS011;2273;48.464;11.926;2022-10-16T03:09:58;6.93;;;3.70;;
4521;SDS011;2273;48.464;11.926;2022-10-16T03:12:25;3.60;;;3.13;;
4521;SDS011;2273;48.464;11.926;2022-10-16T03:14:51;7.67;;;3.50;;
4521;SDS011;2273;48.464;11.926;2022-10-16T03:17:17;5.43;;;3.60;;
4521;SDS011;2273;48.464;11.926;2022-10-16T03:19:42;6.50;;;3.50;;
4521;SDS011;2273;48.464;11.926;2022-10-16T03:22:08;7.10;;;3.23;;
4521;SDS011;2273;48.464;11.926;2022-10-16T03:24:33;4.07;;;3.10;;
4521;SDS011;2273;48.464;11.926;2022-10-16T03:26:59;13.10;;;3.30;;
4521;SDS011;2273;48.464;11.926;2022-10-16T03:29:25;7.90;;;3.60;;
4521;SDS011;2273;48.464;11.926;2022-10-16T03:31:51;5.53;;;3.47;;
4521;SDS011;2273;48.464;11.926;2022-10-16T03:34:16;7.80;;;3.60;;
4521;SDS011;2273;48.464;11.926;2022-10-16T03:36:42;7.60;;;3.60;;
4521;SDS011;2273;48.464;11.926;2022-10-16T03:39:07;25.27;;;4.43;;
4521;SDS011;2273;48.464;11.926;2022-10-16T03:41:33;8.17;;;4.00;;
4521;SDS011;2273;48.464;11.926;2022-10-16T03:43:58;8.43;;;4.10;;
4521;SDS011;2273;48.464;11.926;2022-10-16T03:46:24;10.73;;;4.60;;
4521;SDS011;2273;48.464;11.926;2022-10-16T03:48:49;4.07;;;3.50;;
4521;SDS011;2273;48.464;11.926;2022-10-16T03:51:15;6.70;;;3.27;;
4521;SDS011;2273;48.464;11.926;2022-10-16T03:53:40;9.03;;;4.13;;
4521;SDS011;2273;48.464;11.926;2022-10-16T03:56:06;5.30;;;3.40;;
4521;SDS011;2273;48.464;11.926;2022-10-16T03:58:31;6.80;;;3.30;;
4521;SDS011;2273;48.464;11.926;2022-10-16T04:00:57;5.07;;;3.50;;
4521;SDS011;2273;48.464;11.926;2022-10-16T04:03:22;12.10;;;3.87;;
4521;SDS011;2273;48.464;11.926;2022-10-16T04:05:48;4.10;;;3.57;;
4521;SDS011;2273;48.464;11.926;2022-10-16T04:08:14;6.43;;;3.40;;
4521;SDS011;2273;48.464;11.926;2022-10-16T04:10:39;5.27;;;3.70;;
4521;SDS011;2273;48.464;11.926;2022-10-16T04:13:04;6.90;;;3.83;;
4521;SDS011;2273;48.464;11.926;2022-10-16T04:15:30;3.97;;;3.27;;
4521;SDS011;2273;48.464;11.926;2022-10-16T04:17:56;8.20;;;3.60;;
4521;SDS011;2273;48.464;11.926;2022-10-16T04:20:21;10.40;;;3.73;;
4521;SDS011;2273;48.464;11.926;2022-10-16T04:22:46;11.80;;;3.73;;
4521;SDS011;2273;48.464;11.926;2022-10-16T04:25:12;8.30;;;3.73;;
4521;SDS011;2273;48.464;11.926;2022-10-16T04:27:38;7.33;;;3.50;;
4521;SDS011;2273;48.464;11.926;2022-10-16T04:30:03;4.30;;;3.10;;
4521;SDS011;2273;48.464;11.926;2022-10-16T04:32:29;5.00;;;3.60;;
4521;SDS011;2273;48.464;11.926;2022-10-16T04:34:55;6.10;;;3.30;;
4521;SDS011;2273;48.464;11.926;2022-10-16T04:37:26;6.30;;;3.30;;
4521;SDS011;2273;48.464;11.926;2022-10-16T04:39:52;4.50;;;3.70;;
4521;SDS011;2273;48.464;11.926;2022-10-16T04:42:18;4.00;;;3.13;;
4521;SDS011;2273;48.464;11.926;2022-10-16T04:44:44;4.60;;;3.53;;
4521;SDS011;2273;48.464;11.926;2022-10-16T04:47:09;5.03;;;3.87;;
4521;SDS011;2273;48.464;11.926;2022-10-16T04:49:34;5.37;;;3.30;;
4521;SDS011;2273;48.464;11.926;2022-10-16T04:52:00;6.13;;;3.73;;
4521;SDS011;2273;48.464;11.926;2022-10-16T04:54:25;4.60;;;3.27;;
4521;SDS011;2273;48.464;11.926;2022-10-16T04:56:51;4.50;;;3.53;;
4521;SDS011;2273;48.464;11.926;2022-10-16T04:59:18;5.63;;;3.03;;
4521;SDS011;2273;48.464;11.926;2022-10-16T05:01:44;5.67;;;3.80;;
4521;SDS011;2273;48.464;11.926;2022-10-16T05:04:10;4.47;;;3.53;;
4521;SDS011;2273;48.464;11.926;2022-10-16T05:06:36;5.40;;;3.50;;
4521;SDS011;2273;48.464;11.926;2022-10-16T05:09:03;5.00;;;4.00;;
4521;SDS011;2273;48.464;11.926;2022-10-16T05:11:29;3.57;;;3.17;;
4521;SDS011;2273;48.464;11.926;2022-10-16T05:13:55;5.60;;;3.70;;
4521;SDS011;2273;48.464;11.926;2022-10-16T05:16:20;5.40;;;3.80;;
4521;SDS011;2273;48.464;11.926;2022-10-16T05:18:46;5.83;;;4.57;;
4521;SDS011;2273;48.464;11.926;2022-10-16T05:21:11;4.73;;;3.60;;
4521;SDS011;2273;48.464;11.926;2022-10-16T05:23:36;4.90;;;4.10;;
4521;SDS011;2273;48.464;11.926;2022-10-16T05:26:02;6.10;;;4.10;;
4521;SDS011;2273;48.464;11.926;2022-10-16T05:28:28;5.50;;;4.67;;
4521;SDS011;2273;48.464;11.926;2022-10-16T05:30:55;4.80;;;4.30;;
4521;SDS011;2273;48.464;11.926;2022-10-16T05:33:21;12.30;;;3.90;;
4521;SDS011;2273;48.464;11.926;2022-10-16T05:35:47;8.60;;;4.07;;
4521;SDS011;2273;48.464;11.926;2022-10-16T05:38:13;6.20;;;4.30;;
4521;SDS011;2273;48.464;11.926;2022-10-16T05:40:38;8.07;;;5.40;;
4521;SDS011;2273;48.464;11.926;2022-10-16T05:43:04;11.37;;;8.03;;
4521;SDS011;2273;48.464;11.926;2022-10-16T05:45:30;14.80;;;10.30;;
4521;SDS011;2273;48.464;11.926;2022-10-16T05:47:55;20.73;;;9.37;;
4521;SDS011;2273;48.464;11.926;2022-10-16T05:50:20;14.27;;;9.30;;
4521;SDS011;2273;48.464;11.926;2022-10-16T05:52:46;13.43;;;9.10;;
4521;SDS011;2273;48.464;11.926;2022-10-16T05:55:11;12.07;;;7.97;;
4521;SDS011;2273;48.464;11.926;2022-10-16T05:57:37;17.97;;;9.27;;
4521;SDS011;2273;48.464;11.926;2022-10-16T06:00:03;14.40;;;8.20;;
4521;SDS011;2273;48.464;11.926;2022-10-16T06:02:37;16.10;;;7.43;;
4521;SDS011;2273;48.464;11.926;2022-10-16T06:05:03;7.03;;;5.67;;
4521;SDS011;2273;48.464;11.926;2022-10-16T06:07:29;10.43;;;6.10;;
4521;SDS011;2273;48.464;11.926;2022-10-16T06:09:54;9.87;;;7.40;;
4521;SDS011;2273;48.464;11.926;2022-10-16T06:12:20;8.30;;;5.57;;
4521;SDS011;2273;48.464;11.926;2022-10-16T06:14:45;20.17;;;6.73;;
4521;SDS011;2273;48.464;11.926;2022-10-16T06:17:14;8.00;;;5.70;;
4521;SDS011;2273;48.464;11.926;2022-10-16T06:19:40;12.20;;;6.50;;
4521;SDS011;2273;48.464;11.926;2022-10-16T06:22:05;8.50;;;5.67;;
4521;SDS011;2273;48.464;11.926;2022-10-16T06:24:31;7.07;;;6.10;;
4521;SDS011;2273;48.464;11.926;2022-10-16T06:26:56;8.57;;;5.87;;
4521;SDS011;2273;48.464;11.926;2022-10-16T06:29:22;8.50;;;6.70;;
4521;SDS011;2273;48.464;11.926;2022-10-16T06:31:47;7.50;;;6.30;;
4521;SDS011;2273;48.464;11.926;2022-10-16T06:34:13;9.33;;;6.30;;
4521;SDS011;2273;48.464;11.926;2022-10-16T06:36:38;8.10;;;5.93;;
4521;SDS011;2273;48.464;11.926;2022-10-16T06:39:04;8.67;;;6.37;;
4521;SDS011;2273;48.464;11.926;2022-10-16T06:41:31;14.10;;;6.23;;
4521;SDS011;2273;48.464;11.926;2022-10-16T06:44:06;8.50;;;7.30;;
4521;SDS011;2273;48.464;11.926;2022-10-16T06:46:32;11.00;;;8.20;;
4521;SDS011;2273;48.464;11.926;2022-10-16T06:48:58;20.23;;;8.70;;
4521;SDS011;2273;48.464;11.926;2022-10-16T06:51:23;15.63;;;11.10;;
4521;SDS011;2273;48.464;11.926;2022-10-16T06:53:51;13.20;;;9.43;;
4521;SDS011;2273;48.464;11.926;2022-10-16T06:56:22;18.10;;;12.40;;
4521;SDS011;2273;48.464;11.926;2022-10-16T06:58:49;17.00;;;12.17;;
4521;SDS011;2273;48.464;11.926;2022-10-16T07:01:16;16.80;;;10.93;;
4521;SDS011;2273;48.464;11.926;2022-10-16T07:03:43;14.07;;;10.73;;
4521;SDS011;2273;48.464;11.926;2022-10-16T07:06:10;14.47;;;9.57;;
4521;SDS011;2273;48.464;11.926;2022-10-16T07:08:39;12.80;;;8.60;;
4521;SDS011;2273;48.464;11.926;2022-10-16T07:11:06;17.73;;;10.40;;
4521;SDS011;2273;48.464;11.926;2022-10-16T07:13:34;11.23;;;9.03;;
4521;SDS011;2273;48.464;11.926;2022-10-16T07:16:13;14.30;;;8.10;;
4521;SDS011;2273;48.464;11.926;2022-10-16T07:18:43;10.47;;;8.30;;
4521;SDS011;2273;48.464;11.926;2022-10-16T07:21:20;12.57;;;7.57;;
4521;SDS011;2273;48.464;11.926;2022-10-16T07:23:50;12.07;;;7.37;;
4521;SDS011;2273;48.464;11.926;2022-10-16T07:26:23;11.80;;;8.17;;
4521;SDS011;2273;48.464;11.926;2022-10-16T07:28:49;11.50;;;7.23;;
4521;SDS011;2273;48.464;11.926;2022-10-16T07:31:16;7.53;;;6.50;;
4521;SDS011;2273;48.464;11.926;2022-10-16T07:33:43;10.80;;;6.67;;
4521;SDS011;2273;48.464;11.926;2022-10-16T07:36:10;10.93;;;6.67;;
4521;SDS011;2273;48.464;11.926;2022-10-16T07:38:37;21.57;;;6.90;;
4521;SDS011;2273;48.464;11.926;2022-10-16T07:41:06;8.90;;;6.80;;
4521;SDS011;2273;48.464;11.926;2022-10-16T07:43:32;9.80;;;6.40;;
4521;SDS011;2273;48.464;11.926;2022-10-16T07:45:58;8.30;;;6.20;;
4521;SDS011;2273;48.464;11.926;2022-10-16T07:48:28;9.40;;;7.00;;
4521;SDS011;2273;48.464;11.926;2022-10-16T07:50:58;10.73;;;7.23;;
4521;SDS011;2273;48.464;11.926;2022-10-16T07:53:25;10.10;;;6.20;;
4521;SDS011;2273;48.464;11.926;2022-10-16T07:55:50;11.17;;;7.20;;
4521;SDS011;2273;48.464;11.926;2022-10-16T07:58:16;9.50;;;6.10;;
4521;SDS011;2273;48.464;11.926;2022-10-16T08:00:41;8.83;;;6.30;;
4521;SDS011;2273;48.464;11.926;2022-10-16T08:03:07;7.00;;;5.90;;
4521;SDS011;2273;48.464;11.926;2022-10-16T08:05:33;6.27;;;5.03;;
4521;SDS011;2273;48.464;11.926;2022-10-16T08:07:59;6.60;;;5.20;;
4521;SDS011;2273;48.464;11.926;2022-10-16T08:10:25;5.97;;;5.03;;
4521;SDS011;2273;48.464;11.926;2022-10-16T08:12:52;7.00;;;5.13;;
4521;SDS011;2273;48.464;11.926;2022-10-16T08:15:17;7.70;;;4.57;;
4521;SDS011;2273;48.464;11.926;2022-10-16T08:17:43;6.10;;;4.90;;
4521;SDS011;2273;48.464;11.926;2022-10-16T08:20:09;7.70;;;4.40;;
4521;SDS011;2273;48.464;11.926;2022-10-16T08:22:35;11.37;;;4.87;;
4521;SDS011;2273;48.464;11.926;2022-10-16T08:25:00;7.27;;;4.33;;
4521;SDS011;2273;48.464;11.926;2022-10-16T08:27:30;6.30;;;3.87;;
4521;SDS011;2273;48.464;11.926;2022-10-16T08:29:56;11.80;;;4.93;;
4521;SDS011;2273;48.464;11.926;2022-10-16T08:32:22;5.27;;;3.73;;
4521;SDS011;2273;48.464;11.926;2022-10-16T08:34:47;7.43;;;4.43;;
4521;SDS011;2273;48.464;11.926;2022-10-16T08:37:13;9.87;;;4.60;;
4521;SDS011;2273;48.464;11.926;2022-10-16T08:39:39;6.80;;;4.13;;
4521;SDS011;2273;48.464;11.926;2022-10-16T08:42:11;7.73;;;4.00;;
4521;SDS011;2273;48.464;11.926;2022-10-16T08:45:08;8.77;;;4.10;;
4521;SDS011;2273;48.464;11.926;2022-10-16T08:47:43;5.03;;;3.80;;
4521;SDS011;2273;48.464;11.926;2022-10-16T08:50:17;4.73;;;3.90;;
4521;SDS011;2273;48.464;11.926;2022-10-16T08:52:47;20.47;;;4.57;;
4521;SDS011;2273;48.464;11.926;2022-10-16T08:55:17;4.77;;;3.70;;
4521;SDS011;2273;48.464;11.926;2022-10-16T08:57:51;12.47;;;4.77;;
4521;SDS011;2273;48.464;11.926;2022-10-16T09:00:16;5.50;;;4.20;;
4521;SDS011;2273;48.464;11.926;2022-10-16T09:02:48;7.50;;;3.80;;
4521;SDS011;2273;48.464;11.926;2022-10-16T09:05:26;10.70;;;4.87;;
4521;SDS011;2273;48.464;11.926;2022-10-16T09:08:14;6.00;;;4.20;;
4521;SDS011;2273;48.464;11.926;2022-10-16T09:18:52;5.90;;;4.10;;
4521;SDS011;2273;48.464;11.926;2022-10-16T09:21:33;5.00;;;3.70;;
4521;SDS011;2273;48.464;11.926;2022-10-16T09:24:14;5.47;;;3.80;;
4521;SDS011;2273;48.464;11.926;2022-10-16T09:26:44;4.57;;;3.67;;
4521;SDS011;2273;48.464;11.926;2022-10-16T09:29:14;7.80;;;4.60;;
4521;SDS011;2273;48.464;11.926;2022-10-16T09:31:41;5.87;;;4.33;;
4521;SDS011;2273;48.464;11.926;2022-10-16T09:34:08;5.63;;;4.10;;
4521;SDS011;2273;48.464;11.926;2022-10-16T09:36:46;7.83;;;4.30;;
4521;SDS011;2273;48.464;11.926;2022-10-16T09:39:12;5.07;;;4.20;;
4521;SDS011;2273;48.464;11.926;2022-10-16T09:41:41;5.53;;;4.60;;
4521;SDS011;2273;48.464;11.926;2022-10-16T09:47:03;5.47;;;4.20;;
4521;SDS011;2273;48.464;11.926;2022-10-16T09:49:29;5.30;;;4.00;;
4521;SDS011;2273;48.464;11.926;2022-10-16T09:52:05;12.57;;;4.40;;
4521;SDS011;2273;48.464;11.926;2022-10-16T09:54:34;8.10;;;4.40;;
4521;SDS011;2273;48.464;11.926;2022-10-16T09:57:06;6.20;;;4.30;;
4521;SDS011;2273;48.464;11.926;2022-10-16T09:59:32;6.50;;;4.40;;
4521;SDS011;2273;48.464;11.926;2022-10-16T10:02:01;8.73;;;4.07;;
4521;SDS011;2273;48.464;11.926;2022-10-16T10:04:36;4.23;;;3.33;;
4521;SDS011;2273;48.464;11.926;2022-10-16T10:07:03;4.47;;;3.30;;
4521;SDS011;2273;48.464;11.926;2022-10-16T10:09:30;7.47;;;3.57;;
4521;SDS011;2273;48.464;11.926;2022-10-16T10:11:59;6.70;;;3.93;;
4521;SDS011;2273;48.464;11.926;2022-10-16T10:19:29;4.73;;;3.70;;
4521;SDS011;2273;48.464;11.926;2022-10-16T10:22:10;8.87;;;3.80;;
4521;SDS011;2273;48.464;11.926;2022-10-16T10:24:41;5.80;;;3.67;;
4521;SDS011;2273;48.464;11.926;2022-10-16T10:27:08;12.40;;;3.30;;
4521;SDS011;2273;48.464;11.926;2022-10-16T10:34:41;6.70;;;3.20;;
4521;SDS011;2273;48.464;11.926;2022-10-16T10:37:21;3.73;;;2.73;;
4521;SDS011;2273;48.464;11.926;2022-10-16T10:39:52;9.50;;;3.60;;
4521;SDS011;2273;48.464;11.926;2022-10-16T10:42:30;5.30;;;3.20;;
4521;SDS011;2273;48.464;11.926;2022-10-16T10:47:37;13.57;;;3.00;;
4521;SDS011;2273;48.464;11.926;2022-10-16T10:50:21;14.00;;;3.23;;
4521;SDS011;2273;48.464;11.926;2022-10-16T10:53:37;9.80;;;3.87;;
4521;SDS011;2273;48.464;11.926;2022-10-16T11:01:09;5.57;;;3.00;;
4521;SDS011;2273;48.464;11.926;2022-10-16T11:06:40;5.60;;;3.20;;
4521;SDS011;2273;48.464;11.926;2022-10-16T11:12:14;6.73;;;3.30;;
4521;SDS011;2273;48.464;11.926;2022-10-16T11:14:44;8.13;;;3.10;;
4521;SDS011;2273;48.464;11.926;2022-10-16T11:17:15;13.07;;;3.10;;
4521;SDS011;2273;48.464;11.926;2022-10-16T11:22:35;4.90;;;3.40;;
4521;SDS011;2273;48.464;11.926;2022-10-16T11:28:01;5.73;;;3.00;;
4521;SDS011;2273;48.464;11.926;2022-10-16T11:30:28;6.20;;;2.97;;
4521;SDS011;2273;48.464;11.926;2022-10-16T11:33:13;4.97;;;2.80;;
4521;SDS011;2273;48.464;11.926;2022-10-16T11:49:57;3.93;;;1.97;;
4521;SDS011;2273;48.464;11.926;2022-10-16T11:54:59;2.00;;;1.43;;
4521;SDS011;2273;48.464;11.926;2022-10-16T11:57:31;5.20;;;2.00;;
4521;SDS011;2273;48.464;11.926;2022-10-16T12:00:00;2.10;;;1.50;;
4521;SDS011;2273;48.464;11.926;2022-10-16T12:02:52;4.27;;;1.90;;
4521;SDS011;2273;48.464;11.926;2022-10-16T12:08:20;4.10;;;1.87;;
4521;SDS011;2273;48.464;11.926;2022-10-16T12:10:47;2.10;;;1.70;;
4521;SDS011;2273;48.464;11.926;2022-10-16T12:18:41;2.40;;;1.60;;
4521;SDS011;2273;48.464;11.926;2022-10-16T12:21:08;4.20;;;1.60;;
4521;SDS011;2273;48.464;11.926;2022-10-16T12:23:39;3.27;;;2.20;;
4521;SDS011;2273;48.464;11.926;2022-10-16T12:26:12;1.97;;;1.53;;
4521;SDS011;2273;48.464;11.926;2022-10-16T12:28:38;3.17;;;1.73;;
4521;SDS011;2273;48.464;11.926;2022-10-16T12:31:06;4.63;;;1.80;;
4521;SDS011;2273;48.464;11.926;2022-10-16T12:33:37;2.43;;;1.50;;
4521;SDS011;2273;48.464;11.926;2022-10-16T12:36:27;2.13;;;1.60;;
4521;SDS011;2273;48.464;11.926;2022-10-16T12:39:00;3.87;;;1.60;;
4521;SDS011;2273;48.464;11.926;2022-10-16T12:41:30;8.50;;;1.50;;
4521;SDS011;2273;48.464;11.926;2022-10-16T12:43:57;2.17;;;1.63;;
4521;SDS011;2273;48.464;11.926;2022-10-16T12:49:04;2.40;;;1.80;;
4521;SDS011;2273;48.464;11.926;2022-10-16T12:51:39;3.90;;;1.50;;
4521;SDS011;2273;48.464;11.926;2022-10-16T12:54:15;8.00;;;1.50;;
4521;SDS011;2273;48.464;11.926;2022-10-16T12:59:29;1.83;;;1.50;;
4521;SDS011;2273;48.464;11.926;2022-10-16T13:07:43;5.20;;;1.60;;
4521;SDS011;2273;48.464;11.926;2022-10-16T13:10:21;2.00;;;1.67;;
4521;SDS011;2273;48.464;11.926;2022-10-16T13:13:01;5.10;;;1.50;;
4521;SDS011;2273;48.464;11.926;2022-10-16T13:18:17;2.63;;;1.23;;
4521;SDS011;2273;48.464;11.926;2022-10-16T13:20:51;1.57;;;1.23;;
4521;SDS011;2273;48.464;11.926;2022-10-16T13:28:42;3.10;;;1.40;;
4521;SDS011;2273;48.464;11.926;2022-10-16T13:31:14;2.40;;;1.47;;
4521;SDS011;2273;48.464;11.926;2022-10-16T13:33:43;1.60;;;1.20;;
4521;SDS011;2273;48.464;11.926;2022-10-16T13:36:20;2.03;;;1.43;;
4521;SDS011;2273;48.464;11.926;2022-10-16T13:38:47;1.30;;;1.10;;
4521;SDS011;2273;48.464;11.926;2022-10-16T13:41:14;2.53;;;1.27;;
4521;SDS011;2273;48.464;11.926;2022-10-16T13:43:42;1.97;;;1.40;;
4521;SDS011;2273;48.464;11.926;2022-10-16T13:46:19;1.73;;;1.33;;
4521;SDS011;2273;48.464;11.926;2022-10-16T13:49:05;1.67;;;1.23;;
4521;SDS011;2273;48.464;11.926;2022-10-16T13:51:37;3.23;;;1.33;;
4521;SDS011;2273;48.464;11.926;2022-10-16T13:54:02;2.33;;;1.40;;
4521;SDS011;2273;48.464;11.926;2022-10-16T13:56:29;4.50;;;1.50;;
4521;SDS011;2273;48.464;11.926;2022-10-16T13:59:22;8.83;;;1.30;;
4521;SDS011;2273;48.464;11.926;2022-10-16T14:01:49;1.60;;;1.20;;
4521;SDS011;2273;48.464;11.926;2022-10-16T14:04:15;2.37;;;1.30;;
4521;SDS011;2273;48.464;11.926;2022-10-16T14:06:42;1.60;;;1.20;;
4521;SDS011;2273;48.464;11.926;2022-10-16T14:09:27;1.87;;;1.07;;
4521;SDS011;2273;48.464;11.926;2022-10-16T14:12:01;1.57;;;1.10;;
4521;SDS011;2273;48.464;11.926;2022-10-16T14:14:31;2.07;;;1.20;;
4521;SDS011;2273;48.464;11.926;2022-10-16T14:17:00;1.50;;;1.00;;
4521;SDS011;2273;48.464;11.926;2022-10-16T14:19:28;3.10;;;1.10;;
4521;SDS011;2273;48.464;11.926;2022-10-16T14:21:54;1.60;;;1.10;;
4521;SDS011;2273;48.464;11.926;2022-10-16T14:24:31;3.40;;;1.53;;
4521;SDS011;2273;48.464;11.926;2022-10-16T14:26:57;1.80;;;1.27;;
4521;SDS011;2273;48.464;11.926;2022-10-16T14:29:24;3.33;;;1.00;;
4521;SDS011;2273;48.464;11.926;2022-10-16T14:31:57;8.00;;;1.57;;
4521;SDS011;2273;48.464;11.926;2022-10-16T14:34:32;2.17;;;0.97;;
4521;SDS011;2273;48.464;11.926;2022-10-16T14:37:23;2.87;;;1.00;;
4521;SDS011;2273;48.464;11.926;2022-10-16T14:39:49;1.50;;;1.00;;
4521;SDS011;2273;48.464;11.926;2022-10-16T14:42:16;1.87;;;1.10;;
4521;SDS011;2273;48.464;11.926;2022-10-16T14:44:44;15.70;;;1.50;;
4521;SDS011;2273;48.464;11.926;2022-10-16T14:47:12;2.80;;;1.20;;
4521;SDS011;2273;48.464;11.926;2022-10-16T14:49:40;4.10;;;1.23;;
4521;SDS011;2273;48.464;11.926;2022-10-16T14:52:10;2.90;;;1.10;;
4521;SDS011;2273;48.464;11.926;2022-10-16T14:54:36;2.50;;;1.73;;
4521;SDS011;2273;48.464;11.926;2022-10-16T14:57:02;2.77;;;1.40;;
4521;SDS011;2273;48.464;11.926;2022-10-16T14:59:29;1.30;;;1.07;;
4521;SDS011;2273;48.464;11.926;2022-10-16T15:01:58;2.40;;;1.30;;
4521;SDS011;2273;48.464;11.926;2022-10-16T15:04:24;1.80;;;1.07;;
4521;SDS011;2273;48.464;11.926;2022-10-16T15:06:49;2.50;;;1.00;;
4521;SDS011;2273;48.464;11.926;2022-10-16T15:09:15;2.60;;;1.10;;
4521;SDS011;2273;48.464;11.926;2022-10-16T15:11:41;2.00;;;1.30;;
4521;SDS011;2273;48.464;11.926;2022-10-16T15:14:08;1.83;;;1.37;;
4521;SDS011;2273;48.464;11.926;2022-10-16T15:16:36;1.27;;;1.10;;
4521;SDS011;2273;48.464;11.926;2022-10-16T15:19:02;8.00;;;1.97;;
4521;SDS011;2273;48.464;11.926;2022-10-16T15:21:28;2.80;;;1.80;;
4521;SDS011;2273;48.464;11.926;2022-10-16T15:23:55;2.50;;;1.40;;
4521;SDS011;2273;48.464;11.926;2022-10-16T15:26:24;2.53;;;1.37;;
4521;SDS011;2273;48.464;11.926;2022-10-16T15:28:54;6.03;;;1.97;;
4521;SDS011;2273;48.464;11.926;2022-10-16T15:31:19;4.53;;;2.30;;
4521;SDS011;2273;48.464;11.926;2022-10-16T15:33:48;3.33;;;2.33;;
4521;SDS011;2273;48.464;11.926;2022-10-16T15:36:24;3.37;;;1.77;;
4521;SDS011;2273;48.464;11.926;2022-10-16T15:38:50;4.93;;;2.27;;
4521;SDS011;2273;48.464;11.926;2022-10-16T15:41:16;3.03;;;1.70;;
4521;SDS011;2273;48.464;11.926;2022-10-16T15:43:41;7.10;;;2.40;;
4521;SDS011;2273;48.464;11.926;2022-10-16T15:46:09;3.53;;;2.20;;
4521;SDS011;2273;48.464;11.926;2022-10-16T15:48:36;5.30;;;2.43;;
4521;SDS011;2273;48.464;11.926;2022-10-16T15:51:05;3.40;;;2.17;;
4521;SDS011;2273;48.464;11.926;2022-10-16T15:53:32;3.47;;;2.20;;
4521;SDS011;2273;48.464;11.926;2022-10-16T15:56:01;12.40;;;2.60;;
4521;SDS011;2273;48.464;11.926;2022-10-16T15:58:30;5.73;;;3.27;;
4521;SDS011;2273;48.464;11.926;2022-10-16T16:00:56;5.07;;;3.20;;
4521;SDS011;2273;48.464;11.926;2022-10-16T16:03:22;3.03;;;2.20;;
4521;SDS011;2273;48.464;11.926;2022-10-16T16:05:48;3.17;;;2.60;;
4521;SDS011;2273;48.464;11.926;2022-10-16T16:08:13;4.60;;;2.43;;
4521;SDS011;2273;48.464;11.926;2022-10-16T16:10:38;4.47;;;3.23;;
4521;SDS011;2273;48.464;11.926;2022-10-16T16:13:04;4.73;;;3.10;;
4521;SDS011;2273;48.464;11.926;2022-10-16T16:15:29;19.23;;;12.93;;
4521;SDS011;2273;48.464;11.926;2022-10-16T16:17:55;25.33;;;16.00;;
4521;SDS011;2273;48.464;11.926;2022-10-16T16:20:20;15.53;;;9.73;;
4521;SDS011;2273;48.464;11.926;2022-10-16T16:22:46;9.90;;;7.00;;
4521;SDS011;2273;48.464;11.926;2022-10-16T16:25:11;17.00;;;6.30;;
4521;SDS011;2273;48.464;11.926;2022-10-16T16:27:37;12.30;;;5.60;;
4521;SDS011;2273;48.464;11.926;2022-10-16T16:30:04;6.87;;;4.67;;
4521;SDS011;2273;48.464;11.926;2022-10-16T16:32:32;6.30;;;3.70;;
4521;SDS011;2273;48.464;11.926;2022-10-16T16:34:58;7.53;;;3.30;;
4521;SDS011;2273;48.464;11.926;2022-10-16T16:37:23;5.67;;;3.50;;
4521;SDS011;2273;48.464;11.926;2022-10-16T16:39:49;8.53;;;3.83;;
4521;SDS011;2273;48.464;11.926;2022-10-16T16:42:14;4.37;;;3.20;;
4521;SDS011;2273;48.464;11.926;2022-10-16T16:44:40;14.43;;;4.27;;